<?xml version="1.0" encoding="UTF-8" standalone="no" ?>
<gpx xmlns="http://www.topografix.com/GPX/1/1" xmlns:xsi="http://www.w3.org/2001/XMLSchema-instance" xsi:schemaLocation="http://www.topografix.com/GPX/1/1 http://www.topografix.com/GPX/1/1/gpx.xsd" version="1.1" creator="VisuGPX - https://www.visugpx.com">
  <metadata>
    <name>Boucle Berche</name>
    <desc><![CDATA[Rando facile en forêt en Pays de Montbéliard]]></desc>
  </metadata>
  <trk>
    <name><![CDATA[Rte331v]]></name>
    <trkseg>
      <trkpt lat="47.46984" lon="6.74568">
        <ele>348.13</ele>
        <time>2018-01-30T08:21:03Z</time>
      </trkpt>
      <trkpt lat="47.46982" lon="6.7456">
        <ele>348.13</ele>
        <time>2018-01-30T08:21:09Z</time>
      </trkpt>
      <trkpt lat="47.46949" lon="6.7456">
        <ele>349.58</ele>
        <time>2018-01-30T08:21:43Z</time>
      </trkpt>
      <trkpt lat="47.46922" lon="6.7454">
        <ele>352.94</ele>
        <time>2018-01-30T08:22:17Z</time>
      </trkpt>
      <trkpt lat="47.46909" lon="6.74478">
        <ele>355.34</ele>
        <time>2018-01-30T08:23:05Z</time>
      </trkpt>
      <trkpt lat="47.46908" lon="6.74468">
        <ele>355.83</ele>
        <time>2018-01-30T08:23:12Z</time>
      </trkpt>
      <trkpt lat="47.46894" lon="6.74412">
        <ele>359.19</ele>
        <time>2018-01-30T08:23:49Z</time>
      </trkpt>
      <trkpt lat="47.46885" lon="6.74372">
        <ele>363.04</ele>
        <time>2018-01-30T08:24:18Z</time>
      </trkpt>
      <trkpt lat="47.46895" lon="6.74311">
        <ele>366.88</ele>
        <time>2018-01-30T08:25:04Z</time>
      </trkpt>
      <trkpt lat="47.46895" lon="6.74268">
        <ele>370.24</ele>
        <time>2018-01-30T08:25:34Z</time>
      </trkpt>
      <trkpt lat="47.46897" lon="6.74232">
        <ele>374.09</ele>
        <time>2018-01-30T08:26:04Z</time>
      </trkpt>
      <trkpt lat="47.469" lon="6.74186">
        <ele>378.42</ele>
        <time>2018-01-30T08:26:38Z</time>
      </trkpt>
      <trkpt lat="47.46899" lon="6.74151">
        <ele>382.26</ele>
        <time>2018-01-30T08:27:06Z</time>
      </trkpt>
      <trkpt lat="47.46895" lon="6.74104">
        <ele>385.63</ele>
        <time>2018-01-30T08:27:38Z</time>
      </trkpt>
      <trkpt lat="47.46892" lon="6.7406">
        <ele>388.99</ele>
        <time>2018-01-30T08:28:09Z</time>
      </trkpt>
      <trkpt lat="47.46883" lon="6.74022">
        <ele>393.32</ele>
        <time>2018-01-30T08:28:40Z</time>
      </trkpt>
      <trkpt lat="47.46869" lon="6.73981">
        <ele>396.68</ele>
        <time>2018-01-30T08:29:12Z</time>
      </trkpt>
      <trkpt lat="47.46858" lon="6.73941">
        <ele>400.05</ele>
        <time>2018-01-30T08:29:46Z</time>
      </trkpt>
      <trkpt lat="47.46844" lon="6.73892">
        <ele>403.89</ele>
        <time>2018-01-30T08:30:33Z</time>
      </trkpt>
      <trkpt lat="47.46837" lon="6.73862">
        <ele>405.33</ele>
        <time>2018-01-30T08:31:02Z</time>
      </trkpt>
      <trkpt lat="47.46824" lon="6.73796">
        <ele>404.37</ele>
        <time>2018-01-30T08:31:48Z</time>
      </trkpt>
      <trkpt lat="47.46817" lon="6.73782">
        <ele>403.89</ele>
        <time>2018-01-30T08:32:03Z</time>
      </trkpt>
      <trkpt lat="47.46798" lon="6.73784">
        <ele>403.41</ele>
        <time>2018-01-30T08:32:21Z</time>
      </trkpt>
      <trkpt lat="47.46737" lon="6.7381">
        <ele>401.01</ele>
        <time>2018-01-30T08:33:22Z</time>
      </trkpt>
      <trkpt lat="47.46697" lon="6.73853">
        <ele>400.53</ele>
        <time>2018-01-30T08:34:21Z</time>
      </trkpt>
      <trkpt lat="47.46692" lon="6.7386">
        <ele>400.53</ele>
        <time>2018-01-30T08:34:27Z</time>
      </trkpt>
      <trkpt lat="47.46666" lon="6.73832">
        <ele>399.57</ele>
        <time>2018-01-30T08:35:06Z</time>
      </trkpt>
      <trkpt lat="47.46664" lon="6.7381">
        <ele>400.53</ele>
        <time>2018-01-30T08:35:21Z</time>
      </trkpt>
      <trkpt lat="47.46635" lon="6.73764">
        <ele>402.45</ele>
        <time>2018-01-30T08:35:59Z</time>
      </trkpt>
      <trkpt lat="47.46604" lon="6.73741">
        <ele>404.37</ele>
        <time>2018-01-30T08:36:29Z</time>
      </trkpt>
      <trkpt lat="47.4658" lon="6.73735">
        <ele>406.29</ele>
        <time>2018-01-30T08:36:50Z</time>
      </trkpt>
      <trkpt lat="47.46512" lon="6.73707">
        <ele>407.26</ele>
        <time>2018-01-30T08:37:55Z</time>
      </trkpt>
      <trkpt lat="47.46471" lon="6.73732">
        <ele>412.06</ele>
        <time>2018-01-30T08:38:38Z</time>
      </trkpt>
      <trkpt lat="47.46441" lon="6.73751">
        <ele>416.39</ele>
        <time>2018-01-30T08:39:13Z</time>
      </trkpt>
      <trkpt lat="47.46436" lon="6.7375">
        <ele>416.39</ele>
        <time>2018-01-30T08:39:16Z</time>
      </trkpt>
      <trkpt lat="47.46389" lon="6.73744">
        <ele>421.19</ele>
        <time>2018-01-30T08:40:02Z</time>
      </trkpt>
      <trkpt lat="47.46369" lon="6.73735">
        <ele>422.16</ele>
        <time>2018-01-30T08:40:22Z</time>
      </trkpt>
      <trkpt lat="47.46335" lon="6.73723">
        <ele>424.56</ele>
        <time>2018-01-30T08:40:55Z</time>
      </trkpt>
      <trkpt lat="47.46315" lon="6.73657">
        <ele>427.44</ele>
        <time>2018-01-30T08:41:40Z</time>
      </trkpt>
      <trkpt lat="47.46321" lon="6.73541">
        <ele>431.77</ele>
        <time>2018-01-30T08:42:48Z</time>
      </trkpt>
      <trkpt lat="47.46318" lon="6.73397">
        <ele>435.13</ele>
        <time>2018-01-30T08:44:12Z</time>
      </trkpt>
      <trkpt lat="47.46319" lon="6.73324">
        <ele>435.61</ele>
        <time>2018-01-30T08:44:54Z</time>
      </trkpt>
      <trkpt lat="47.46319" lon="6.73219">
        <ele>439.46</ele>
        <time>2018-01-30T08:45:55Z</time>
      </trkpt>
      <trkpt lat="47.46319" lon="6.73125">
        <ele>442.82</ele>
        <time>2018-01-30T08:46:49Z</time>
      </trkpt>
      <trkpt lat="47.4632" lon="6.73094">
        <ele>442.82</ele>
        <time>2018-01-30T08:47:07Z</time>
      </trkpt>
      <trkpt lat="47.4632" lon="6.72946">
        <ele>440.42</ele>
        <time>2018-01-30T08:48:35Z</time>
      </trkpt>
      <trkpt lat="47.4631" lon="6.72887">
        <ele>438.98</ele>
        <time>2018-01-30T08:49:24Z</time>
      </trkpt>
      <trkpt lat="47.46286" lon="6.72859">
        <ele>439.46</ele>
        <time>2018-01-30T08:50:07Z</time>
      </trkpt>
      <trkpt lat="47.46262" lon="6.72887">
        <ele>443.31</ele>
        <time>2018-01-30T08:50:39Z</time>
      </trkpt>
      <trkpt lat="47.46231" lon="6.72919">
        <ele>446.67</ele>
        <time>2018-01-30T08:51:14Z</time>
      </trkpt>
      <trkpt lat="47.46229" lon="6.72921">
        <ele>446.19</ele>
        <time>2018-01-30T08:51:16Z</time>
      </trkpt>
      <trkpt lat="47.4621" lon="6.72873">
        <ele>446.67</ele>
        <time>2018-01-30T08:51:52Z</time>
      </trkpt>
      <trkpt lat="47.46186" lon="6.72777">
        <ele>445.71</ele>
        <time>2018-01-30T08:52:54Z</time>
      </trkpt>
      <trkpt lat="47.46153" lon="6.72739">
        <ele>446.67</ele>
        <time>2018-01-30T08:53:30Z</time>
      </trkpt>
      <trkpt lat="47.4605" lon="6.72608">
        <ele>444.75</ele>
        <time>2018-01-30T08:55:28Z</time>
      </trkpt>
      <trkpt lat="47.46018" lon="6.72569">
        <ele>443.31</ele>
        <time>2018-01-30T08:56:03Z</time>
      </trkpt>
      <trkpt lat="47.45988" lon="6.72529">
        <ele>439.94</ele>
        <time>2018-01-30T08:56:37Z</time>
      </trkpt>
      <trkpt lat="47.45984" lon="6.72528">
        <ele>439.94</ele>
        <time>2018-01-30T08:56:41Z</time>
      </trkpt>
      <trkpt lat="47.45956" lon="6.72537">
        <ele>442.34</ele>
        <time>2018-01-30T08:57:08Z</time>
      </trkpt>
      <trkpt lat="47.45924" lon="6.72559">
        <ele>445.71</ele>
        <time>2018-01-30T08:57:39Z</time>
      </trkpt>
      <trkpt lat="47.45908" lon="6.72568">
        <ele>447.15</ele>
        <time>2018-01-30T08:57:54Z</time>
      </trkpt>
      <trkpt lat="47.45862" lon="6.72603">
        <ele>450.52</ele>
        <time>2018-01-30T08:58:40Z</time>
      </trkpt>
      <trkpt lat="47.45848" lon="6.72614">
        <ele>450.52</ele>
        <time>2018-01-30T08:58:53Z</time>
      </trkpt>
      <trkpt lat="47.45843" lon="6.72616">
        <ele>451</ele>
        <time>2018-01-30T08:58:57Z</time>
      </trkpt>
      <trkpt lat="47.45803" lon="6.72598">
        <ele>450.52</ele>
        <time>2018-01-30T08:59:42Z</time>
      </trkpt>
      <trkpt lat="47.45629" lon="6.72664">
        <ele>450.52</ele>
        <time>2018-01-30T09:02:13Z</time>
      </trkpt>
      <trkpt lat="47.45579" lon="6.72682">
        <ele>454.36</ele>
        <time>2018-01-30T09:02:56Z</time>
      </trkpt>
      <trkpt lat="47.45552" lon="6.72693">
        <ele>456.28</ele>
        <time>2018-01-30T09:03:21Z</time>
      </trkpt>
      <trkpt lat="47.45528" lon="6.72695">
        <ele>458.21</ele>
        <time>2018-01-30T09:03:44Z</time>
      </trkpt>
      <trkpt lat="47.45514" lon="6.72695">
        <ele>459.65</ele>
        <time>2018-01-30T09:03:59Z</time>
      </trkpt>
      <trkpt lat="47.45511" lon="6.72678">
        <ele>459.65</ele>
        <time>2018-01-30T09:04:10Z</time>
      </trkpt>
      <trkpt lat="47.45501" lon="6.72598">
        <ele>457.24</ele>
        <time>2018-01-30T09:04:59Z</time>
      </trkpt>
      <trkpt lat="47.45487" lon="6.72479">
        <ele>453.88</ele>
        <time>2018-01-30T09:06:06Z</time>
      </trkpt>
      <trkpt lat="47.45472" lon="6.72332">
        <ele>449.55</ele>
        <time>2018-01-30T09:07:28Z</time>
      </trkpt>
      <trkpt lat="47.45459" lon="6.7222">
        <ele>446.19</ele>
        <time>2018-01-30T09:08:32Z</time>
      </trkpt>
      <trkpt lat="47.45449" lon="6.72108">
        <ele>442.82</ele>
        <time>2018-01-30T09:09:35Z</time>
      </trkpt>
      <trkpt lat="47.45457" lon="6.71987">
        <ele>438.5</ele>
        <time>2018-01-30T09:10:41Z</time>
      </trkpt>
      <trkpt lat="47.45473" lon="6.71892">
        <ele>438.02</ele>
        <time>2018-01-30T09:11:43Z</time>
      </trkpt>
      <trkpt lat="47.45486" lon="6.71854">
        <ele>436.58</ele>
        <time>2018-01-30T09:12:38Z</time>
      </trkpt>
      <trkpt lat="47.45502" lon="6.71817">
        <ele>433.69</ele>
        <time>2018-01-30T09:13:40Z</time>
      </trkpt>
      <trkpt lat="47.45521" lon="6.7179">
        <ele>432.25</ele>
        <time>2018-01-30T09:15:27Z</time>
      </trkpt>
      <trkpt lat="47.45517" lon="6.71759">
        <ele>431.77</ele>
        <time>2018-01-30T09:16:00Z</time>
      </trkpt>
      <trkpt lat="47.4551" lon="6.71668">
        <ele>428.4</ele>
        <time>2018-01-30T09:17:03Z</time>
      </trkpt>
      <trkpt lat="47.45508" lon="6.7165">
        <ele>426.96</ele>
        <time>2018-01-30T09:17:16Z</time>
      </trkpt>
      <trkpt lat="47.45512" lon="6.71607">
        <ele>423.12</ele>
        <time>2018-01-30T09:17:45Z</time>
      </trkpt>
      <trkpt lat="47.45509" lon="6.71587">
        <ele>421.68</ele>
        <time>2018-01-30T09:18:01Z</time>
      </trkpt>
      <trkpt lat="47.45506" lon="6.7158">
        <ele>420.23</ele>
        <time>2018-01-30T09:18:08Z</time>
      </trkpt>
      <trkpt lat="47.45498" lon="6.71565">
        <ele>418.79</ele>
        <time>2018-01-30T09:18:23Z</time>
      </trkpt>
      <trkpt lat="47.45497" lon="6.71561">
        <ele>418.79</ele>
        <time>2018-01-30T09:18:25Z</time>
      </trkpt>
      <trkpt lat="47.45495" lon="6.71544">
        <ele>421.19</ele>
        <time>2018-01-30T09:18:42Z</time>
      </trkpt>
      <trkpt lat="47.4549" lon="6.71473">
        <ele>423.6</ele>
        <time>2018-01-30T09:19:26Z</time>
      </trkpt>
      <trkpt lat="47.45488" lon="6.71448">
        <ele>422.16</ele>
        <time>2018-01-30T09:19:41Z</time>
      </trkpt>
      <trkpt lat="47.45471" lon="6.71382">
        <ele>421.19</ele>
        <time>2018-01-30T09:20:25Z</time>
      </trkpt>
      <trkpt lat="47.45456" lon="6.7135">
        <ele>423.12</ele>
        <time>2018-01-30T09:20:51Z</time>
      </trkpt>
      <trkpt lat="47.45425" lon="6.71316">
        <ele>426.96</ele>
        <time>2018-01-30T09:21:31Z</time>
      </trkpt>
      <trkpt lat="47.45395" lon="6.71242">
        <ele>426.96</ele>
        <time>2018-01-30T09:22:45Z</time>
      </trkpt>
      <trkpt lat="47.45382" lon="6.7121">
        <ele>426</ele>
        <time>2018-01-30T09:23:07Z</time>
      </trkpt>
      <trkpt lat="47.45334" lon="6.71125">
        <ele>426.48</ele>
        <time>2018-01-30T09:24:19Z</time>
      </trkpt>
      <trkpt lat="47.45285" lon="6.71031">
        <ele>427.92</ele>
        <time>2018-01-30T09:25:29Z</time>
      </trkpt>
      <trkpt lat="47.45275" lon="6.7102">
        <ele>428.89</ele>
        <time>2018-01-30T09:25:42Z</time>
      </trkpt>
      <trkpt lat="47.45245" lon="6.71022">
        <ele>432.73</ele>
        <time>2018-01-30T09:26:12Z</time>
      </trkpt>
      <trkpt lat="47.45223" lon="6.71032">
        <ele>435.13</ele>
        <time>2018-01-30T09:27:05Z</time>
      </trkpt>
      <trkpt lat="47.45212" lon="6.7105">
        <ele>436.58</ele>
        <time>2018-01-30T09:27:26Z</time>
      </trkpt>
      <trkpt lat="47.45204" lon="6.71025">
        <ele>436.58</ele>
        <time>2018-01-30T09:27:51Z</time>
      </trkpt>
      <trkpt lat="47.45168" lon="6.70931">
        <ele>433.69</ele>
        <time>2018-01-30T09:28:58Z</time>
      </trkpt>
      <trkpt lat="47.45142" lon="6.70868">
        <ele>431.77</ele>
        <time>2018-01-30T09:29:43Z</time>
      </trkpt>
      <trkpt lat="47.45136" lon="6.70847">
        <ele>431.77</ele>
        <time>2018-01-30T09:29:58Z</time>
      </trkpt>
      <trkpt lat="47.45113" lon="6.70787">
        <ele>428.4</ele>
        <time>2018-01-30T09:30:45Z</time>
      </trkpt>
      <trkpt lat="47.45085" lon="6.70725">
        <ele>423.6</ele>
        <time>2018-01-30T09:31:34Z</time>
      </trkpt>
      <trkpt lat="47.45066" lon="6.7067">
        <ele>420.23</ele>
        <time>2018-01-30T09:32:20Z</time>
      </trkpt>
      <trkpt lat="47.4505" lon="6.7063">
        <ele>419.27</ele>
        <time>2018-01-30T09:33:08Z</time>
      </trkpt>
      <trkpt lat="47.45032" lon="6.7063">
        <ele>419.75</ele>
        <time>2018-01-30T09:33:35Z</time>
      </trkpt>
      <trkpt lat="47.44989" lon="6.7062">
        <ele>420.23</ele>
        <time>2018-01-30T09:34:20Z</time>
      </trkpt>
      <trkpt lat="47.4497" lon="6.70595">
        <ele>420.23</ele>
        <time>2018-01-30T09:34:48Z</time>
      </trkpt>
      <trkpt lat="47.44927" lon="6.70597">
        <ele>429.37</ele>
        <time>2018-01-30T09:42:10Z</time>
      </trkpt>
      <trkpt lat="47.44889" lon="6.70569">
        <ele>431.77</ele>
        <time>2018-01-30T09:42:46Z</time>
      </trkpt>
      <trkpt lat="47.44863" lon="6.7051">
        <ele>435.13</ele>
        <time>2018-01-30T09:43:41Z</time>
      </trkpt>
      <trkpt lat="47.44854" lon="6.70459">
        <ele>439.46</ele>
        <time>2018-01-30T09:44:23Z</time>
      </trkpt>
      <trkpt lat="47.4485" lon="6.70427">
        <ele>441.86</ele>
        <time>2018-01-30T09:44:47Z</time>
      </trkpt>
      <trkpt lat="47.44845" lon="6.70372">
        <ele>443.79</ele>
        <time>2018-01-30T09:45:39Z</time>
      </trkpt>
      <trkpt lat="47.44814" lon="6.70375">
        <ele>440.9</ele>
        <time>2018-01-30T09:46:11Z</time>
      </trkpt>
      <trkpt lat="47.44765" lon="6.70365">
        <ele>438.02</ele>
        <time>2018-01-30T09:46:59Z</time>
      </trkpt>
      <trkpt lat="47.44739" lon="6.70368">
        <ele>439.46</ele>
        <time>2018-01-30T09:50:55Z</time>
      </trkpt>
      <trkpt lat="47.44707" lon="6.70391">
        <ele>440.9</ele>
        <time>2018-01-30T09:51:22Z</time>
      </trkpt>
      <trkpt lat="47.44688" lon="6.70399">
        <ele>443.31</ele>
        <time>2018-01-30T09:51:51Z</time>
      </trkpt>
      <trkpt lat="47.44662" lon="6.70414">
        <ele>447.15</ele>
        <time>2018-01-30T09:52:18Z</time>
      </trkpt>
      <trkpt lat="47.44661" lon="6.70415">
        <ele>447.15</ele>
        <time>2018-01-30T09:52:19Z</time>
      </trkpt>
      <trkpt lat="47.44628" lon="6.70423">
        <ele>449.07</ele>
        <time>2018-01-30T09:52:53Z</time>
      </trkpt>
      <trkpt lat="47.44608" lon="6.70404">
        <ele>450.03</ele>
        <time>2018-01-30T09:53:37Z</time>
      </trkpt>
      <trkpt lat="47.44599" lon="6.70392">
        <ele>450.03</ele>
        <time>2018-01-30T09:53:51Z</time>
      </trkpt>
      <trkpt lat="47.44543" lon="6.70263">
        <ele>444.75</ele>
        <time>2018-01-30T09:56:00Z</time>
      </trkpt>
      <trkpt lat="47.44543" lon="6.70229">
        <ele>447.63</ele>
        <time>2018-01-30T09:56:38Z</time>
      </trkpt>
      <trkpt lat="47.44537" lon="6.70153">
        <ele>447.63</ele>
        <time>2018-01-30T09:57:55Z</time>
      </trkpt>
      <trkpt lat="47.44535" lon="6.70103">
        <ele>447.15</ele>
        <time>2018-01-30T09:58:51Z</time>
      </trkpt>
      <trkpt lat="47.44531" lon="6.70099">
        <ele>447.15</ele>
        <time>2018-01-30T09:59:09Z</time>
      </trkpt>
      <trkpt lat="47.44503" lon="6.70079">
        <ele>448.59</ele>
        <time>2018-01-30T09:59:50Z</time>
      </trkpt>
      <trkpt lat="47.44518" lon="6.70059">
        <ele>447.15</ele>
        <time>2018-01-30T10:00:17Z</time>
      </trkpt>
      <trkpt lat="47.44528" lon="6.70028">
        <ele>446.67</ele>
        <time>2018-01-30T10:00:37Z</time>
      </trkpt>
      <trkpt lat="47.4453" lon="6.69977">
        <ele>446.19</ele>
        <time>2018-01-30T10:01:08Z</time>
      </trkpt>
      <trkpt lat="47.44552" lon="6.69918">
        <ele>448.59</ele>
        <time>2018-01-30T10:02:28Z</time>
      </trkpt>
      <trkpt lat="47.44564" lon="6.69907">
        <ele>447.15</ele>
        <time>2018-01-30T10:05:26Z</time>
      </trkpt>
      <trkpt lat="47.44569" lon="6.69901">
        <ele>447.15</ele>
        <time>2018-01-30T10:05:37Z</time>
      </trkpt>
      <trkpt lat="47.4461" lon="6.69873">
        <ele>443.79</ele>
        <time>2018-01-30T10:06:27Z</time>
      </trkpt>
      <trkpt lat="47.44642" lon="6.69854">
        <ele>440.9</ele>
        <time>2018-01-30T10:07:03Z</time>
      </trkpt>
      <trkpt lat="47.44644" lon="6.69811">
        <ele>438.98</ele>
        <time>2018-01-30T10:07:35Z</time>
      </trkpt>
      <trkpt lat="47.44629" lon="6.69765">
        <ele>437.06</ele>
        <time>2018-01-30T10:08:18Z</time>
      </trkpt>
      <trkpt lat="47.44598" lon="6.69686">
        <ele>433.21</ele>
        <time>2018-01-30T10:09:27Z</time>
      </trkpt>
      <trkpt lat="47.44574" lon="6.69629">
        <ele>429.37</ele>
        <time>2018-01-30T10:10:17Z</time>
      </trkpt>
      <trkpt lat="47.44562" lon="6.69564">
        <ele>425.04</ele>
        <time>2018-01-30T10:11:17Z</time>
      </trkpt>
      <trkpt lat="47.44544" lon="6.69549">
        <ele>426.96</ele>
        <time>2018-01-30T10:11:55Z</time>
      </trkpt>
      <trkpt lat="47.44534" lon="6.6954">
        <ele>428.4</ele>
        <time>2018-01-30T10:12:19Z</time>
      </trkpt>
      <trkpt lat="47.44517" lon="6.69527">
        <ele>429.37</ele>
        <time>2018-01-30T10:13:17Z</time>
      </trkpt>
      <trkpt lat="47.44478" lon="6.69502">
        <ele>431.77</ele>
        <time>2018-01-30T10:14:02Z</time>
      </trkpt>
      <trkpt lat="47.44443" lon="6.6947">
        <ele>433.21</ele>
        <time>2018-01-30T10:14:41Z</time>
      </trkpt>
      <trkpt lat="47.44435" lon="6.69451">
        <ele>432.73</ele>
        <time>2018-01-30T10:17:01Z</time>
      </trkpt>
      <trkpt lat="47.44405" lon="6.69414">
        <ele>433.21</ele>
        <time>2018-01-30T10:17:46Z</time>
      </trkpt>
      <trkpt lat="47.44372" lon="6.69375">
        <ele>433.69</ele>
        <time>2018-01-30T10:18:30Z</time>
      </trkpt>
      <trkpt lat="47.44361" lon="6.69367">
        <ele>433.21</ele>
        <time>2018-01-30T10:18:45Z</time>
      </trkpt>
      <trkpt lat="47.44307" lon="6.69343">
        <ele>435.61</ele>
        <time>2018-01-30T10:19:43Z</time>
      </trkpt>
      <trkpt lat="47.44259" lon="6.69308">
        <ele>437.54</ele>
        <time>2018-01-30T10:20:29Z</time>
      </trkpt>
      <trkpt lat="47.44271" lon="6.69268">
        <ele>438.02</ele>
        <time>2018-01-30T10:20:58Z</time>
      </trkpt>
      <trkpt lat="47.44274" lon="6.69211">
        <ele>440.9</ele>
        <time>2018-01-30T10:21:41Z</time>
      </trkpt>
      <trkpt lat="47.44266" lon="6.69176">
        <ele>440.9</ele>
        <time>2018-01-30T10:22:01Z</time>
      </trkpt>
      <trkpt lat="47.44249" lon="6.6911">
        <ele>440.9</ele>
        <time>2018-01-30T10:23:01Z</time>
      </trkpt>
      <trkpt lat="47.44249" lon="6.69082">
        <ele>439.94</ele>
        <time>2018-01-30T10:23:40Z</time>
      </trkpt>
      <trkpt lat="47.44245" lon="6.69029">
        <ele>440.42</ele>
        <time>2018-01-30T10:24:26Z</time>
      </trkpt>
      <trkpt lat="47.4423" lon="6.6887">
        <ele>440.42</ele>
        <time>2018-01-30T10:26:17Z</time>
      </trkpt>
      <trkpt lat="47.44198" lon="6.68866">
        <ele>443.31</ele>
        <time>2018-01-30T10:27:10Z</time>
      </trkpt>
      <trkpt lat="47.44163" lon="6.6888">
        <ele>446.67</ele>
        <time>2018-01-30T10:27:58Z</time>
      </trkpt>
      <trkpt lat="47.44151" lon="6.68886">
        <ele>448.11</ele>
        <time>2018-01-30T10:28:12Z</time>
      </trkpt>
      <trkpt lat="47.44109" lon="6.6892">
        <ele>451.96</ele>
        <time>2018-01-30T10:29:00Z</time>
      </trkpt>
      <trkpt lat="47.44083" lon="6.6898">
        <ele>454.36</ele>
        <time>2018-01-30T10:29:57Z</time>
      </trkpt>
      <trkpt lat="47.44032" lon="6.6902">
        <ele>455.8</ele>
        <time>2018-01-30T10:30:52Z</time>
      </trkpt>
      <trkpt lat="47.44008" lon="6.69038">
        <ele>453.88</ele>
        <time>2018-01-30T10:31:21Z</time>
      </trkpt>
      <trkpt lat="47.43992" lon="6.69069">
        <ele>449.55</ele>
        <time>2018-01-30T10:31:48Z</time>
      </trkpt>
      <trkpt lat="47.4397" lon="6.69101">
        <ele>445.23</ele>
        <time>2018-01-30T10:32:21Z</time>
      </trkpt>
      <trkpt lat="47.43957" lon="6.69113">
        <ele>445.23</ele>
        <time>2018-01-30T10:32:36Z</time>
      </trkpt>
      <trkpt lat="47.43942" lon="6.69135">
        <ele>444.27</ele>
        <time>2018-01-30T10:33:04Z</time>
      </trkpt>
      <trkpt lat="47.43919" lon="6.69122">
        <ele>441.86</ele>
        <time>2018-01-30T10:33:33Z</time>
      </trkpt>
      <trkpt lat="47.43915" lon="6.69086">
        <ele>436.58</ele>
        <time>2018-01-30T10:34:00Z</time>
      </trkpt>
      <trkpt lat="47.43903" lon="6.6907">
        <ele>432.25</ele>
        <time>2018-01-30T10:34:30Z</time>
      </trkpt>
      <trkpt lat="47.43879" lon="6.69058">
        <ele>428.4</ele>
        <time>2018-01-30T10:35:00Z</time>
      </trkpt>
      <trkpt lat="47.43862" lon="6.69034">
        <ele>425.04</ele>
        <time>2018-01-30T10:35:30Z</time>
      </trkpt>
      <trkpt lat="47.43837" lon="6.69012">
        <ele>420.71</ele>
        <time>2018-01-30T10:36:16Z</time>
      </trkpt>
      <trkpt lat="47.4381" lon="6.69013">
        <ele>417.35</ele>
        <time>2018-01-30T10:37:03Z</time>
      </trkpt>
      <trkpt lat="47.4377" lon="6.69045">
        <ele>413.5</ele>
        <time>2018-01-30T10:37:50Z</time>
      </trkpt>
      <trkpt lat="47.43737" lon="6.69057">
        <ele>411.1</ele>
        <time>2018-01-30T10:38:22Z</time>
      </trkpt>
      <trkpt lat="47.43699" lon="6.6906">
        <ele>407.74</ele>
        <time>2018-01-30T10:39:11Z</time>
      </trkpt>
      <trkpt lat="47.43686" lon="6.69064">
        <ele>406.77</ele>
        <time>2018-01-30T10:39:28Z</time>
      </trkpt>
      <trkpt lat="47.43658" lon="6.69111">
        <ele>404.37</ele>
        <time>2018-01-30T10:40:36Z</time>
      </trkpt>
      <trkpt lat="47.43649" lon="6.69125">
        <ele>404.37</ele>
        <time>2018-01-30T10:40:50Z</time>
      </trkpt>
      <trkpt lat="47.4361" lon="6.69173">
        <ele>401.97</ele>
        <time>2018-01-30T10:41:45Z</time>
      </trkpt>
      <trkpt lat="47.43577" lon="6.69194">
        <ele>400.05</ele>
        <time>2018-01-30T10:42:16Z</time>
      </trkpt>
      <trkpt lat="47.43525" lon="6.69238">
        <ele>396.2</ele>
        <time>2018-01-30T10:43:16Z</time>
      </trkpt>
      <trkpt lat="47.43518" lon="6.69262">
        <ele>395.72</ele>
        <time>2018-01-30T10:43:35Z</time>
      </trkpt>
      <trkpt lat="47.43485" lon="6.69301">
        <ele>391.39</ele>
        <time>2018-01-30T10:44:16Z</time>
      </trkpt>
      <trkpt lat="47.43443" lon="6.69336">
        <ele>388.03</ele>
        <time>2018-01-30T10:45:12Z</time>
      </trkpt>
      <trkpt lat="47.43421" lon="6.6936">
        <ele>387.07</ele>
        <time>2018-01-30T10:46:06Z</time>
      </trkpt>
      <trkpt lat="47.43425" lon="6.69371">
        <ele>386.11</ele>
        <time>2018-01-30T10:46:19Z</time>
      </trkpt>
      <trkpt lat="47.43429" lon="6.69372">
        <ele>386.11</ele>
        <time>2018-01-30T10:46:22Z</time>
      </trkpt>
      <trkpt lat="47.43463" lon="6.69401">
        <ele>389.95</ele>
        <time>2018-01-30T10:47:14Z</time>
      </trkpt>
      <trkpt lat="47.43478" lon="6.69412">
        <ele>390.91</ele>
        <time>2018-01-30T10:47:28Z</time>
      </trkpt>
      <trkpt lat="47.43512" lon="6.69429">
        <ele>395.72</ele>
        <time>2018-01-30T10:48:16Z</time>
      </trkpt>
      <trkpt lat="47.43552" lon="6.69446">
        <ele>398.6</ele>
        <time>2018-01-30T10:49:01Z</time>
      </trkpt>
      <trkpt lat="47.43595" lon="6.69456">
        <ele>402.45</ele>
        <time>2018-01-30T10:49:50Z</time>
      </trkpt>
      <trkpt lat="47.43634" lon="6.69467">
        <ele>405.81</ele>
        <time>2018-01-30T10:50:34Z</time>
      </trkpt>
      <trkpt lat="47.43687" lon="6.69472">
        <ele>410.14</ele>
        <time>2018-01-30T10:51:33Z</time>
      </trkpt>
      <trkpt lat="47.43702" lon="6.69481">
        <ele>413.98</ele>
        <time>2018-01-30T10:52:03Z</time>
      </trkpt>
      <trkpt lat="47.43718" lon="6.695">
        <ele>418.79</ele>
        <time>2018-01-30T10:52:37Z</time>
      </trkpt>
      <trkpt lat="47.43733" lon="6.69513">
        <ele>423.6</ele>
        <time>2018-01-30T10:53:07Z</time>
      </trkpt>
      <trkpt lat="47.43744" lon="6.69524">
        <ele>426.96</ele>
        <time>2018-01-30T10:53:35Z</time>
      </trkpt>
      <trkpt lat="47.43765" lon="6.69543">
        <ele>430.81</ele>
        <time>2018-01-30T10:54:15Z</time>
      </trkpt>
      <trkpt lat="47.43792" lon="6.69574">
        <ele>435.13</ele>
        <time>2018-01-30T10:54:57Z</time>
      </trkpt>
      <trkpt lat="47.43808" lon="6.69617">
        <ele>440.42</ele>
        <time>2018-01-30T10:57:27Z</time>
      </trkpt>
      <trkpt lat="47.43845" lon="6.69621">
        <ele>443.79</ele>
        <time>2018-01-30T10:58:12Z</time>
      </trkpt>
      <trkpt lat="47.43865" lon="6.69665">
        <ele>448.11</ele>
        <time>2018-01-30T10:58:59Z</time>
      </trkpt>
      <trkpt lat="47.43865" lon="6.69726">
        <ele>450.03</ele>
        <time>2018-01-30T10:59:45Z</time>
      </trkpt>
      <trkpt lat="47.43868" lon="6.69782">
        <ele>451.48</ele>
        <time>2018-01-30T11:00:26Z</time>
      </trkpt>
      <trkpt lat="47.43892" lon="6.69808">
        <ele>454.84</ele>
        <time>2018-01-30T11:00:58Z</time>
      </trkpt>
      <trkpt lat="47.43924" lon="6.69839">
        <ele>458.21</ele>
        <time>2018-01-30T11:01:45Z</time>
      </trkpt>
      <trkpt lat="47.43948" lon="6.69877">
        <ele>463.01</ele>
        <time>2018-01-30T11:51:49Z</time>
      </trkpt>
      <trkpt lat="47.43954" lon="6.69878">
        <ele>462.53</ele>
        <time>2018-01-30T12:06:25Z</time>
      </trkpt>
      <trkpt lat="47.43978" lon="6.6987">
        <ele>463.97</ele>
        <time>2018-01-30T12:10:35Z</time>
      </trkpt>
      <trkpt lat="47.44035" lon="6.69908">
        <ele>462.53</ele>
        <time>2018-01-30T12:11:45Z</time>
      </trkpt>
      <trkpt lat="47.44044" lon="6.69918">
        <ele>458.69</ele>
        <time>2018-01-30T12:12:00Z</time>
      </trkpt>
      <trkpt lat="47.44045" lon="6.69918">
        <ele>464.45</ele>
        <time>2018-01-30T12:12:01Z</time>
      </trkpt>
      <trkpt lat="47.4405" lon="6.69922">
        <ele>461.09</ele>
        <time>2018-01-30T12:12:07Z</time>
      </trkpt>
      <trkpt lat="47.44066" lon="6.69931">
        <ele>459.17</ele>
        <time>2018-01-30T12:12:23Z</time>
      </trkpt>
      <trkpt lat="47.44077" lon="6.69967">
        <ele>457.24</ele>
        <time>2018-01-30T12:12:59Z</time>
      </trkpt>
      <trkpt lat="47.44075" lon="6.70041">
        <ele>457.72</ele>
        <time>2018-01-30T12:14:15Z</time>
      </trkpt>
      <trkpt lat="47.44071" lon="6.70124">
        <ele>455.32</ele>
        <time>2018-01-30T12:15:23Z</time>
      </trkpt>
      <trkpt lat="47.44055" lon="6.70179">
        <ele>454.36</ele>
        <time>2018-01-30T12:15:58Z</time>
      </trkpt>
      <trkpt lat="47.44038" lon="6.7026">
        <ele>453.4</ele>
        <time>2018-01-30T12:16:58Z</time>
      </trkpt>
      <trkpt lat="47.44045" lon="6.70282">
        <ele>453.4</ele>
        <time>2018-01-30T12:17:13Z</time>
      </trkpt>
      <trkpt lat="47.44025" lon="6.70328">
        <ele>453.4</ele>
        <time>2018-01-30T12:18:02Z</time>
      </trkpt>
      <trkpt lat="47.43986" lon="6.70364">
        <ele>453.88</ele>
        <time>2018-01-30T12:18:54Z</time>
      </trkpt>
      <trkpt lat="47.43958" lon="6.70394">
        <ele>454.84</ele>
        <time>2018-01-30T12:19:32Z</time>
      </trkpt>
      <trkpt lat="47.43927" lon="6.70429">
        <ele>453.88</ele>
        <time>2018-01-30T12:20:14Z</time>
      </trkpt>
      <trkpt lat="47.43902" lon="6.70446">
        <ele>451.96</ele>
        <time>2018-01-30T12:20:53Z</time>
      </trkpt>
      <trkpt lat="47.43888" lon="6.70457">
        <ele>451.48</ele>
        <time>2018-01-30T12:21:21Z</time>
      </trkpt>
      <trkpt lat="47.43871" lon="6.70463">
        <ele>451.96</ele>
        <time>2018-01-30T12:21:53Z</time>
      </trkpt>
      <trkpt lat="47.43848" lon="6.7049">
        <ele>452.44</ele>
        <time>2018-01-30T12:22:42Z</time>
      </trkpt>
      <trkpt lat="47.43847" lon="6.70534">
        <ele>453.88</ele>
        <time>2018-01-30T12:23:17Z</time>
      </trkpt>
      <trkpt lat="47.43828" lon="6.70565">
        <ele>454.84</ele>
        <time>2018-01-30T12:23:52Z</time>
      </trkpt>
      <trkpt lat="47.43813" lon="6.70581">
        <ele>456.28</ele>
        <time>2018-01-30T12:24:17Z</time>
      </trkpt>
      <trkpt lat="47.43813" lon="6.70598">
        <ele>456.76</ele>
        <time>2018-01-30T12:24:29Z</time>
      </trkpt>
      <trkpt lat="47.43821" lon="6.70647">
        <ele>459.65</ele>
        <time>2018-01-30T12:25:11Z</time>
      </trkpt>
      <trkpt lat="47.43822" lon="6.70662">
        <ele>459.65</ele>
        <time>2018-01-30T12:25:22Z</time>
      </trkpt>
      <trkpt lat="47.43826" lon="6.70694">
        <ele>461.09</ele>
        <time>2018-01-30T12:25:56Z</time>
      </trkpt>
      <trkpt lat="47.43838" lon="6.70753">
        <ele>463.01</ele>
        <time>2018-01-30T12:26:38Z</time>
      </trkpt>
      <trkpt lat="47.43838" lon="6.70809">
        <ele>464.45</ele>
        <time>2018-01-30T12:27:29Z</time>
      </trkpt>
      <trkpt lat="47.4384" lon="6.70821">
        <ele>464.93</ele>
        <time>2018-01-30T12:27:55Z</time>
      </trkpt>
      <trkpt lat="47.43849" lon="6.70903">
        <ele>468.3</ele>
        <time>2018-01-30T12:28:58Z</time>
      </trkpt>
      <trkpt lat="47.43843" lon="6.70936">
        <ele>469.26</ele>
        <time>2018-01-30T12:29:27Z</time>
      </trkpt>
      <trkpt lat="47.43856" lon="6.71001">
        <ele>472.14</ele>
        <time>2018-01-30T12:30:19Z</time>
      </trkpt>
      <trkpt lat="47.43856" lon="6.71012">
        <ele>472.14</ele>
        <time>2018-01-30T12:30:28Z</time>
      </trkpt>
      <trkpt lat="47.43878" lon="6.711">
        <ele>475.03</ele>
        <time>2018-01-30T12:31:39Z</time>
      </trkpt>
      <trkpt lat="47.43885" lon="6.71147">
        <ele>475.51</ele>
        <time>2018-01-30T12:32:15Z</time>
      </trkpt>
      <trkpt lat="47.43898" lon="6.71179">
        <ele>476.95</ele>
        <time>2018-01-30T12:32:46Z</time>
      </trkpt>
      <trkpt lat="47.43893" lon="6.71264">
        <ele>479.35</ele>
        <time>2018-01-30T12:33:48Z</time>
      </trkpt>
      <trkpt lat="47.43882" lon="6.71346">
        <ele>479.35</ele>
        <time>2018-01-30T12:34:44Z</time>
      </trkpt>
      <trkpt lat="47.43865" lon="6.71444">
        <ele>478.87</ele>
        <time>2018-01-30T12:35:48Z</time>
      </trkpt>
      <trkpt lat="47.43833" lon="6.71566">
        <ele>476.95</ele>
        <time>2018-01-30T12:37:13Z</time>
      </trkpt>
      <trkpt lat="47.43835" lon="6.71637">
        <ele>477.43</ele>
        <time>2018-01-30T12:37:54Z</time>
      </trkpt>
      <trkpt lat="47.43839" lon="6.71682">
        <ele>477.91</ele>
        <time>2018-01-30T12:38:23Z</time>
      </trkpt>
      <trkpt lat="47.43845" lon="6.71713">
        <ele>478.39</ele>
        <time>2018-01-30T12:38:42Z</time>
      </trkpt>
      <trkpt lat="47.43874" lon="6.71809">
        <ele>477.91</ele>
        <time>2018-01-30T12:39:46Z</time>
      </trkpt>
      <trkpt lat="47.43897" lon="6.71904">
        <ele>476.95</ele>
        <time>2018-01-30T12:40:46Z</time>
      </trkpt>
      <trkpt lat="47.43916" lon="6.71985">
        <ele>476.95</ele>
        <time>2018-01-30T12:41:46Z</time>
      </trkpt>
      <trkpt lat="47.43936" lon="6.72072">
        <ele>476.95</ele>
        <time>2018-01-30T12:42:46Z</time>
      </trkpt>
      <trkpt lat="47.43971" lon="6.72185">
        <ele>476.95</ele>
        <time>2018-01-30T12:44:10Z</time>
      </trkpt>
      <trkpt lat="47.44019" lon="6.72315">
        <ele>476.95</ele>
        <time>2018-01-30T12:45:49Z</time>
      </trkpt>
      <trkpt lat="47.44033" lon="6.7236">
        <ele>476.47</ele>
        <time>2018-01-30T12:46:22Z</time>
      </trkpt>
      <trkpt lat="47.44069" lon="6.72451">
        <ele>475.03</ele>
        <time>2018-01-30T12:47:33Z</time>
      </trkpt>
      <trkpt lat="47.44079" lon="6.7245">
        <ele>475.51</ele>
        <time>2018-01-30T12:47:44Z</time>
      </trkpt>
      <trkpt lat="47.44119" lon="6.72439">
        <ele>478.87</ele>
        <time>2018-01-30T12:48:28Z</time>
      </trkpt>
      <trkpt lat="47.44127" lon="6.72437">
        <ele>478.87</ele>
        <time>2018-01-30T12:48:39Z</time>
      </trkpt>
      <trkpt lat="47.44182" lon="6.72421">
        <ele>480.8</ele>
        <time>2018-01-30T12:49:24Z</time>
      </trkpt>
      <trkpt lat="47.44253" lon="6.72403">
        <ele>481.76</ele>
        <time>2018-01-30T12:50:33Z</time>
      </trkpt>
      <trkpt lat="47.44329" lon="6.72384">
        <ele>480.32</ele>
        <time>2018-01-30T12:51:34Z</time>
      </trkpt>
      <trkpt lat="47.4438" lon="6.72365">
        <ele>480.32</ele>
        <time>2018-01-30T12:52:22Z</time>
      </trkpt>
      <trkpt lat="47.44436" lon="6.72355">
        <ele>481.76</ele>
        <time>2018-01-30T12:53:30Z</time>
      </trkpt>
      <trkpt lat="47.44462" lon="6.72351">
        <ele>480.32</ele>
        <time>2018-01-30T12:54:15Z</time>
      </trkpt>
      <trkpt lat="47.44474" lon="6.72346">
        <ele>480.32</ele>
        <time>2018-01-30T12:54:27Z</time>
      </trkpt>
      <trkpt lat="47.44501" lon="6.72368">
        <ele>480.32</ele>
        <time>2018-01-30T12:54:57Z</time>
      </trkpt>
      <trkpt lat="47.44504" lon="6.72383">
        <ele>480.8</ele>
        <time>2018-01-30T12:55:16Z</time>
      </trkpt>
      <trkpt lat="47.44512" lon="6.72429">
        <ele>480.8</ele>
        <time>2018-01-30T12:57:23Z</time>
      </trkpt>
      <trkpt lat="47.44534" lon="6.72491">
        <ele>481.76</ele>
        <time>2018-01-30T12:57:56Z</time>
      </trkpt>
      <trkpt lat="47.44554" lon="6.72565">
        <ele>482.24</ele>
        <time>2018-01-30T12:58:44Z</time>
      </trkpt>
      <trkpt lat="47.44569" lon="6.72663">
        <ele>478.87</ele>
        <time>2018-01-30T12:59:38Z</time>
      </trkpt>
      <trkpt lat="47.44579" lon="6.72689">
        <ele>479.35</ele>
        <time>2018-01-30T12:59:56Z</time>
      </trkpt>
      <trkpt lat="47.44625" lon="6.7281">
        <ele>476.47</ele>
        <time>2018-01-30T13:01:17Z</time>
      </trkpt>
      <trkpt lat="47.4465" lon="6.72903">
        <ele>474.07</ele>
        <time>2018-01-30T13:02:09Z</time>
      </trkpt>
      <trkpt lat="47.44691" lon="6.72982">
        <ele>471.18</ele>
        <time>2018-01-30T13:03:10Z</time>
      </trkpt>
      <trkpt lat="47.44704" lon="6.73008">
        <ele>470.22</ele>
        <time>2018-01-30T13:03:28Z</time>
      </trkpt>
      <trkpt lat="47.44729" lon="6.73069">
        <ele>468.78</ele>
        <time>2018-01-30T13:04:09Z</time>
      </trkpt>
      <trkpt lat="47.44744" lon="6.73116">
        <ele>467.34</ele>
        <time>2018-01-30T13:04:41Z</time>
      </trkpt>
      <trkpt lat="47.44757" lon="6.73143">
        <ele>465.9</ele>
        <time>2018-01-30T13:04:58Z</time>
      </trkpt>
      <trkpt lat="47.4479" lon="6.73217">
        <ele>462.53</ele>
        <time>2018-01-30T13:05:47Z</time>
      </trkpt>
      <trkpt lat="47.44807" lon="6.73274">
        <ele>459.17</ele>
        <time>2018-01-30T13:06:27Z</time>
      </trkpt>
      <trkpt lat="47.44832" lon="6.73343">
        <ele>455.32</ele>
        <time>2018-01-30T13:07:15Z</time>
      </trkpt>
      <trkpt lat="47.44838" lon="6.73342">
        <ele>453.88</ele>
        <time>2018-01-30T13:07:43Z</time>
      </trkpt>
      <trkpt lat="47.44839" lon="6.73302">
        <ele>455.32</ele>
        <time>2018-01-30T13:08:21Z</time>
      </trkpt>
      <trkpt lat="47.44841" lon="6.73231">
        <ele>456.28</ele>
        <time>2018-01-30T13:09:07Z</time>
      </trkpt>
      <trkpt lat="47.44839" lon="6.73139">
        <ele>456.76</ele>
        <time>2018-01-30T13:10:15Z</time>
      </trkpt>
      <trkpt lat="47.44844" lon="6.73105">
        <ele>455.32</ele>
        <time>2018-01-30T13:10:35Z</time>
      </trkpt>
      <trkpt lat="47.44848" lon="6.73074">
        <ele>454.84</ele>
        <time>2018-01-30T13:11:00Z</time>
      </trkpt>
      <trkpt lat="47.44857" lon="6.73027">
        <ele>453.88</ele>
        <time>2018-01-30T13:11:29Z</time>
      </trkpt>
      <trkpt lat="47.44868" lon="6.73001">
        <ele>452.44</ele>
        <time>2018-01-30T13:12:09Z</time>
      </trkpt>
      <trkpt lat="47.44868" lon="6.7302">
        <ele>451.96</ele>
        <time>2018-01-30T13:12:23Z</time>
      </trkpt>
      <trkpt lat="47.44882" lon="6.73056">
        <ele>448.59</ele>
        <time>2018-01-30T13:12:55Z</time>
      </trkpt>
      <trkpt lat="47.44888" lon="6.73077">
        <ele>448.11</ele>
        <time>2018-01-30T13:13:20Z</time>
      </trkpt>
      <trkpt lat="47.44915" lon="6.73112">
        <ele>444.75</ele>
        <time>2018-01-30T13:13:49Z</time>
      </trkpt>
      <trkpt lat="47.44928" lon="6.73125">
        <ele>440.42</ele>
        <time>2018-01-30T13:14:16Z</time>
      </trkpt>
      <trkpt lat="47.44949" lon="6.73146">
        <ele>436.58</ele>
        <time>2018-01-30T13:14:46Z</time>
      </trkpt>
      <trkpt lat="47.44957" lon="6.73169">
        <ele>435.13</ele>
        <time>2018-01-30T13:15:13Z</time>
      </trkpt>
      <trkpt lat="47.44976" lon="6.73221">
        <ele>431.77</ele>
        <time>2018-01-30T13:15:53Z</time>
      </trkpt>
      <trkpt lat="47.44992" lon="6.7327">
        <ele>427.44</ele>
        <time>2018-01-30T13:16:36Z</time>
      </trkpt>
      <trkpt lat="47.45013" lon="6.73314">
        <ele>423.6</ele>
        <time>2018-01-30T13:17:15Z</time>
      </trkpt>
      <trkpt lat="47.45013" lon="6.73315">
        <ele>423.6</ele>
        <time>2018-01-30T13:17:16Z</time>
      </trkpt>
      <trkpt lat="47.45013" lon="6.73346">
        <ele>420.23</ele>
        <time>2018-01-30T13:17:42Z</time>
      </trkpt>
      <trkpt lat="47.45019" lon="6.7337">
        <ele>416.39</ele>
        <time>2018-01-30T13:18:03Z</time>
      </trkpt>
      <trkpt lat="47.45036" lon="6.73401">
        <ele>412.54</ele>
        <time>2018-01-30T13:18:34Z</time>
      </trkpt>
      <trkpt lat="47.4504" lon="6.734">
        <ele>411.58</ele>
        <time>2018-01-30T13:18:37Z</time>
      </trkpt>
      <trkpt lat="47.451" lon="6.73387">
        <ele>412.54</ele>
        <time>2018-01-30T13:19:46Z</time>
      </trkpt>
      <trkpt lat="47.45107" lon="6.73373">
        <ele>413.02</ele>
        <time>2018-01-30T13:19:59Z</time>
      </trkpt>
      <trkpt lat="47.45132" lon="6.73339">
        <ele>416.39</ele>
        <time>2018-01-30T13:20:39Z</time>
      </trkpt>
      <trkpt lat="47.45152" lon="6.73306">
        <ele>419.75</ele>
        <time>2018-01-30T13:21:20Z</time>
      </trkpt>
      <trkpt lat="47.45179" lon="6.73271">
        <ele>423.6</ele>
        <time>2018-01-30T13:22:02Z</time>
      </trkpt>
      <trkpt lat="47.45203" lon="6.73218">
        <ele>428.4</ele>
        <time>2018-01-30T13:22:47Z</time>
      </trkpt>
      <trkpt lat="47.45216" lon="6.73189">
        <ele>431.77</ele>
        <time>2018-01-30T13:23:19Z</time>
      </trkpt>
      <trkpt lat="47.45233" lon="6.7315">
        <ele>435.13</ele>
        <time>2018-01-30T13:24:00Z</time>
      </trkpt>
      <trkpt lat="47.45263" lon="6.73088">
        <ele>439.46</ele>
        <time>2018-01-30T13:25:01Z</time>
      </trkpt>
      <trkpt lat="47.45272" lon="6.73072">
        <ele>440.42</ele>
        <time>2018-01-30T13:25:18Z</time>
      </trkpt>
      <trkpt lat="47.45317" lon="6.73076">
        <ele>444.75</ele>
        <time>2018-01-30T13:26:06Z</time>
      </trkpt>
      <trkpt lat="47.45335" lon="6.73099">
        <ele>448.11</ele>
        <time>2018-01-30T13:26:54Z</time>
      </trkpt>
      <trkpt lat="47.45358" lon="6.73101">
        <ele>451.96</ele>
        <time>2018-01-30T13:30:16Z</time>
      </trkpt>
      <trkpt lat="47.45365" lon="6.73143">
        <ele>455.8</ele>
        <time>2018-01-30T13:31:00Z</time>
      </trkpt>
      <trkpt lat="47.45364" lon="6.73174">
        <ele>456.28</ele>
        <time>2018-01-30T13:31:55Z</time>
      </trkpt>
      <trkpt lat="47.45383" lon="6.73212">
        <ele>458.21</ele>
        <time>2018-01-30T13:32:46Z</time>
      </trkpt>
      <trkpt lat="47.45396" lon="6.73277">
        <ele>459.17</ele>
        <time>2018-01-30T13:33:49Z</time>
      </trkpt>
      <trkpt lat="47.45424" lon="6.73295">
        <ele>459.65</ele>
        <time>2018-01-30T13:34:19Z</time>
      </trkpt>
      <trkpt lat="47.45445" lon="6.73319">
        <ele>459.65</ele>
        <time>2018-01-30T13:34:57Z</time>
      </trkpt>
      <trkpt lat="47.45462" lon="6.73353">
        <ele>461.09</ele>
        <time>2018-01-30T13:35:39Z</time>
      </trkpt>
      <trkpt lat="47.45442" lon="6.73397">
        <ele>462.05</ele>
        <time>2018-01-30T13:36:19Z</time>
      </trkpt>
      <trkpt lat="47.45439" lon="6.73433">
        <ele>460.61</ele>
        <time>2018-01-30T13:36:49Z</time>
      </trkpt>
      <trkpt lat="47.4544" lon="6.73462">
        <ele>460.61</ele>
        <time>2018-01-30T13:37:06Z</time>
      </trkpt>
      <trkpt lat="47.4545" lon="6.73562">
        <ele>458.21</ele>
        <time>2018-01-30T13:38:10Z</time>
      </trkpt>
      <trkpt lat="47.45458" lon="6.73604">
        <ele>456.76</ele>
        <time>2018-01-30T13:38:40Z</time>
      </trkpt>
      <trkpt lat="47.4547" lon="6.73612">
        <ele>457.24</ele>
        <time>2018-01-30T13:38:56Z</time>
      </trkpt>
      <trkpt lat="47.45503" lon="6.73643">
        <ele>459.17</ele>
        <time>2018-01-30T13:39:36Z</time>
      </trkpt>
      <trkpt lat="47.45511" lon="6.7365">
        <ele>459.65</ele>
        <time>2018-01-30T13:39:42Z</time>
      </trkpt>
      <trkpt lat="47.45581" lon="6.73667">
        <ele>461.09</ele>
        <time>2018-01-30T13:42:06Z</time>
      </trkpt>
      <trkpt lat="47.45601" lon="6.73672">
        <ele>461.09</ele>
        <time>2018-01-30T13:42:27Z</time>
      </trkpt>
      <trkpt lat="47.45636" lon="6.73686">
        <ele>461.57</ele>
        <time>2018-01-30T13:43:24Z</time>
      </trkpt>
      <trkpt lat="47.45641" lon="6.73708">
        <ele>461.09</ele>
        <time>2018-01-30T13:44:17Z</time>
      </trkpt>
      <trkpt lat="47.45622" lon="6.73778">
        <ele>459.65</ele>
        <time>2018-01-30T13:45:21Z</time>
      </trkpt>
      <trkpt lat="47.45625" lon="6.73813">
        <ele>458.69</ele>
        <time>2018-01-30T13:46:33Z</time>
      </trkpt>
      <trkpt lat="47.45611" lon="6.73872">
        <ele>456.76</ele>
        <time>2018-01-30T13:47:42Z</time>
      </trkpt>
      <trkpt lat="47.45612" lon="6.73913">
        <ele>455.32</ele>
        <time>2018-01-30T13:48:49Z</time>
      </trkpt>
      <trkpt lat="47.4558" lon="6.73946">
        <ele>454.84</ele>
        <time>2018-01-30T13:49:38Z</time>
      </trkpt>
      <trkpt lat="47.4556" lon="6.74014">
        <ele>452.92</ele>
        <time>2018-01-30T13:50:38Z</time>
      </trkpt>
      <trkpt lat="47.45521" lon="6.74031">
        <ele>451.96</ele>
        <time>2018-01-30T13:51:34Z</time>
      </trkpt>
      <trkpt lat="47.4551" lon="6.74038">
        <ele>451</ele>
        <time>2018-01-30T13:51:49Z</time>
      </trkpt>
      <trkpt lat="47.45513" lon="6.74077">
        <ele>450.03</ele>
        <time>2018-01-30T13:52:16Z</time>
      </trkpt>
      <trkpt lat="47.45524" lon="6.74175">
        <ele>446.19</ele>
        <time>2018-01-30T13:53:28Z</time>
      </trkpt>
      <trkpt lat="47.45538" lon="6.74238">
        <ele>444.75</ele>
        <time>2018-01-30T13:54:16Z</time>
      </trkpt>
      <trkpt lat="47.45534" lon="6.74286">
        <ele>441.86</ele>
        <time>2018-01-30T13:54:58Z</time>
      </trkpt>
      <trkpt lat="47.45538" lon="6.74321">
        <ele>440.42</ele>
        <time>2018-01-30T13:55:25Z</time>
      </trkpt>
      <trkpt lat="47.4556" lon="6.74388">
        <ele>438.02</ele>
        <time>2018-01-30T13:56:18Z</time>
      </trkpt>
      <trkpt lat="47.45585" lon="6.74452">
        <ele>436.58</ele>
        <time>2018-01-30T13:57:12Z</time>
      </trkpt>
      <trkpt lat="47.45597" lon="6.74501">
        <ele>435.13</ele>
        <time>2018-01-30T13:58:10Z</time>
      </trkpt>
      <trkpt lat="47.45608" lon="6.74506">
        <ele>433.69</ele>
        <time>2018-01-30T13:59:32Z</time>
      </trkpt>
      <trkpt lat="47.45624" lon="6.74537">
        <ele>433.69</ele>
        <time>2018-01-30T14:00:21Z</time>
      </trkpt>
      <trkpt lat="47.45617" lon="6.74555">
        <ele>432.73</ele>
        <time>2018-01-30T14:01:32Z</time>
      </trkpt>
      <trkpt lat="47.45659" lon="6.74575">
        <ele>428.89</ele>
        <time>2018-01-30T14:03:11Z</time>
      </trkpt>
      <trkpt lat="47.45697" lon="6.74575">
        <ele>425.52</ele>
        <time>2018-01-30T14:03:55Z</time>
      </trkpt>
      <trkpt lat="47.45749" lon="6.74557">
        <ele>423.12</ele>
        <time>2018-01-30T14:04:46Z</time>
      </trkpt>
      <trkpt lat="47.45785" lon="6.74577">
        <ele>420.23</ele>
        <time>2018-01-30T14:05:32Z</time>
      </trkpt>
      <trkpt lat="47.45835" lon="6.74603">
        <ele>417.83</ele>
        <time>2018-01-30T14:06:36Z</time>
      </trkpt>
      <trkpt lat="47.45876" lon="6.74621">
        <ele>416.39</ele>
        <time>2018-01-30T14:07:24Z</time>
      </trkpt>
      <trkpt lat="47.45919" lon="6.74641">
        <ele>414.47</ele>
        <time>2018-01-30T14:08:08Z</time>
      </trkpt>
      <trkpt lat="47.45979" lon="6.74663">
        <ele>413.02</ele>
        <time>2018-01-30T14:09:10Z</time>
      </trkpt>
      <trkpt lat="47.46004" lon="6.74682">
        <ele>412.06</ele>
        <time>2018-01-30T14:09:40Z</time>
      </trkpt>
      <trkpt lat="47.46047" lon="6.74693">
        <ele>410.62</ele>
        <time>2018-01-30T14:10:12Z</time>
      </trkpt>
      <trkpt lat="47.46095" lon="6.74718">
        <ele>407.26</ele>
        <time>2018-01-30T14:11:02Z</time>
      </trkpt>
      <trkpt lat="47.4611" lon="6.74727">
        <ele>407.26</ele>
        <time>2018-01-30T14:11:16Z</time>
      </trkpt>
      <trkpt lat="47.46161" lon="6.74752">
        <ele>405.33</ele>
        <time>2018-01-30T14:12:02Z</time>
      </trkpt>
      <trkpt lat="47.4619" lon="6.74775">
        <ele>404.37</ele>
        <time>2018-01-30T14:12:34Z</time>
      </trkpt>
      <trkpt lat="47.46233" lon="6.74797">
        <ele>402.45</ele>
        <time>2018-01-30T14:13:19Z</time>
      </trkpt>
      <trkpt lat="47.46288" lon="6.74804">
        <ele>400.05</ele>
        <time>2018-01-30T14:14:03Z</time>
      </trkpt>
      <trkpt lat="47.46335" lon="6.74816">
        <ele>397.16</ele>
        <time>2018-01-30T14:14:51Z</time>
      </trkpt>
      <trkpt lat="47.46387" lon="6.74808">
        <ele>393.32</ele>
        <time>2018-01-30T14:15:34Z</time>
      </trkpt>
      <trkpt lat="47.46463" lon="6.74806">
        <ele>389.47</ele>
        <time>2018-01-30T14:16:39Z</time>
      </trkpt>
      <trkpt lat="47.46479" lon="6.74813">
        <ele>387.55</ele>
        <time>2018-01-30T14:16:56Z</time>
      </trkpt>
      <trkpt lat="47.46527" lon="6.74826">
        <ele>384.18</ele>
        <time>2018-01-30T14:17:45Z</time>
      </trkpt>
      <trkpt lat="47.46577" lon="6.74822">
        <ele>378.42</ele>
        <time>2018-01-30T14:18:32Z</time>
      </trkpt>
      <trkpt lat="47.46615" lon="6.74822">
        <ele>374.57</ele>
        <time>2018-01-30T14:19:07Z</time>
      </trkpt>
      <trkpt lat="47.46649" lon="6.74822">
        <ele>370.73</ele>
        <time>2018-01-30T14:19:38Z</time>
      </trkpt>
      <trkpt lat="47.46685" lon="6.74826">
        <ele>366.88</ele>
        <time>2018-01-30T14:20:11Z</time>
      </trkpt>
      <trkpt lat="47.46702" lon="6.74789">
        <ele>362.55</ele>
        <time>2018-01-30T14:21:01Z</time>
      </trkpt>
      <trkpt lat="47.46718" lon="6.74745">
        <ele>357.75</ele>
        <time>2018-01-30T14:21:52Z</time>
      </trkpt>
      <trkpt lat="47.46734" lon="6.74705">
        <ele>355.34</ele>
        <time>2018-01-30T14:22:34Z</time>
      </trkpt>
      <trkpt lat="47.46762" lon="6.74669">
        <ele>354.38</ele>
        <time>2018-01-30T14:23:08Z</time>
      </trkpt>
      <trkpt lat="47.46818" lon="6.74637">
        <ele>354.38</ele>
        <time>2018-01-30T14:24:03Z</time>
      </trkpt>
      <trkpt lat="47.46864" lon="6.74601">
        <ele>353.42</ele>
        <time>2018-01-30T14:24:55Z</time>
      </trkpt>
      <trkpt lat="47.46912" lon="6.74579">
        <ele>354.86</ele>
        <time>2018-01-30T14:25:43Z</time>
      </trkpt>
      <trkpt lat="47.46972" lon="6.74562">
        <ele>353.42</ele>
        <time>2018-01-30T14:26:43Z</time>
      </trkpt>
      <trkpt lat="47.46978" lon="6.74568">
        <ele>352.94</ele>
        <time>2018-01-30T14:27:03Z</time>
      </trkpt>
    </trkseg>
  </trk>
</gpx>